createdAt,value
2023-10-04T00:01:42.990Z,3.77
2023-10-04T00:04:14.283Z,4.05
2023-10-04T00:06:44.836Z,3.80
2023-10-04T00:09:16.023Z,3.92
2023-10-04T00:11:46.683Z,4.15
2023-10-04T00:14:17.222Z,3.55
2023-10-04T00:16:47.828Z,3.70
2023-10-04T00:19:20.023Z,4.40
2023-10-04T00:21:50.891Z,3.67
2023-10-04T00:24:21.903Z,3.52
2023-10-04T00:26:52.629Z,3.40
2023-10-04T00:29:24.383Z,4.10
2023-10-04T00:31:55.098Z,3.08
2023-10-04T00:34:27.257Z,3.77
2023-10-04T00:36:58.002Z,3.25
2023-10-04T00:39:28.764Z,3.20
2023-10-04T00:41:59.650Z,3.37
2023-10-04T00:44:31.955Z,3.15
2023-10-04T00:47:03.418Z,2.92
2023-10-04T00:49:35.334Z,3.70
2023-10-04T00:52:06.412Z,3.65
2023-10-04T00:54:37.033Z,4.15
2023-10-04T00:57:11.202Z,3.58
2023-10-04T00:59:44.093Z,3.17
2023-10-04T01:02:14.863Z,3.40
2023-10-04T01:04:45.621Z,3.72
2023-10-04T01:07:17.657Z,4.35
2023-10-04T01:09:48.277Z,3.52
2023-10-04T01:12:24.843Z,3.85
2023-10-04T01:14:55.612Z,4.62
2023-10-04T01:17:27.881Z,4.67
2023-10-04T01:19:58.556Z,4.40
2023-10-04T01:22:29.364Z,4.17
2023-10-04T01:25:01.205Z,3.60
2023-10-04T01:27:32.793Z,4.47
2023-10-04T01:30:03.953Z,4.00
2023-10-04T01:32:35.725Z,4.28
2023-10-04T01:35:06.994Z,4.37
2023-10-04T01:37:39.239Z,3.90
2023-10-04T01:40:13.990Z,3.98
2023-10-04T01:42:47.086Z,4.03
2023-10-04T01:45:19.557Z,3.42
2023-10-04T01:47:52.852Z,3.58
2023-10-04T01:50:25.118Z,4.25
2023-10-04T01:52:55.904Z,3.40
2023-10-04T01:55:27.455Z,3.83
2023-10-04T01:57:58.108Z,3.77
2023-10-04T02:00:29.809Z,4.37
2023-10-04T02:03:02.528Z,3.80
2023-10-04T02:05:34.850Z,3.60
2023-10-04T02:08:11.457Z,3.50
2023-10-04T02:10:46.759Z,3.70
2023-10-04T02:13:17.271Z,4.67
2023-10-04T02:15:50.021Z,3.40
2023-10-04T02:18:22.808Z,3.80
2023-10-04T02:20:55.303Z,4.12
2023-10-04T02:23:25.967Z,4.78
2023-10-04T02:25:56.887Z,4.33
2023-10-04T02:28:27.432Z,4.25
2023-10-04T02:30:58.142Z,4.12
2023-10-04T02:33:30.592Z,4.10
2023-10-04T02:36:02.408Z,4.67
2023-10-04T02:38:34.633Z,4.47
2023-10-04T02:41:07.788Z,4.45
2023-10-04T02:43:39.385Z,3.85
2023-10-04T02:46:11.937Z,5.33
2023-10-04T02:48:43.041Z,4.35
2023-10-04T02:51:14.348Z,5.60
2023-10-04T02:53:45.115Z,5.60
2023-10-04T02:56:23.504Z,4.95
2023-10-04T02:58:54.106Z,4.45
2023-10-04T03:01:26.070Z,5.05
2023-10-04T03:03:56.765Z,4.83
2023-10-04T03:06:28.019Z,5.35
2023-10-04T03:08:58.669Z,4.95
2023-10-04T03:11:29.202Z,4.37
2023-10-04T03:14:01.253Z,5.13
2023-10-04T03:16:32.025Z,4.78
2023-10-04T03:19:03.517Z,5.12
2023-10-04T03:21:35.363Z,5.42
2023-10-04T03:24:11.056Z,5.30
2023-10-04T03:26:41.637Z,5.17
2023-10-04T03:29:12.722Z,5.65
2023-10-04T03:31:43.795Z,5.10
2023-10-04T03:34:14.326Z,5.90
2023-10-04T03:36:46.484Z,5.28
2023-10-04T03:39:17.468Z,6.25
2023-10-04T03:41:51.035Z,5.87
2023-10-04T03:44:21.815Z,6.45
2023-10-04T03:46:53.946Z,6.25
2023-10-04T03:49:26.488Z,6.28
2023-10-04T03:51:57.607Z,6.20
2023-10-04T03:54:29.212Z,5.80
2023-10-04T03:57:01.644Z,5.93
2023-10-04T03:59:32.219Z,6.20
2023-10-04T04:02:04.369Z,6.22
2023-10-04T04:04:35.707Z,6.28
2023-10-04T04:07:06.358Z,5.87
2023-10-04T04:09:37.073Z,6.10
2023-10-04T04:12:08.330Z,6.50
2023-10-04T04:14:39.296Z,6.20
2023-10-04T04:17:10.399Z,6.20
2023-10-04T04:19:40.881Z,6.42
2023-10-04T04:22:11.731Z,6.20
2023-10-04T04:24:42.573Z,6.30
2023-10-04T04:27:16.959Z,5.95
2023-10-04T04:29:59.049Z,7.25
2023-10-04T04:32:30.524Z,7.05
2023-10-04T04:35:02.725Z,6.35
2023-10-04T04:37:34.520Z,6.05
2023-10-04T04:40:07.521Z,6.22
2023-10-04T04:42:39.995Z,5.85
2023-10-04T04:45:12.943Z,6.42
2023-10-04T04:47:46.211Z,6.25
2023-10-04T04:50:18.102Z,5.37
2023-10-04T04:52:48.681Z,6.22
2023-10-04T04:55:19.511Z,6.47
2023-10-04T04:57:50.121Z,5.92
2023-10-04T05:00:33.373Z,5.75
2023-10-04T05:03:05.968Z,6.05
2023-10-04T05:05:36.752Z,6.10
2023-10-04T05:08:08.820Z,5.85
2023-10-04T05:10:40.100Z,5.53
2023-10-04T05:13:12.449Z,5.90
2023-10-04T05:15:43.949Z,5.47
2023-10-04T05:18:19.182Z,6.00
2023-10-04T05:20:53.494Z,5.90
2023-10-04T05:23:26.105Z,5.65
2023-10-04T05:25:56.949Z,6.03
2023-10-04T05:28:30.476Z,5.25
2023-10-04T05:31:01.077Z,5.50
2023-10-04T05:33:32.469Z,5.12
2023-10-04T05:36:04.412Z,5.53
2023-10-04T05:38:36.425Z,5.20
2023-10-04T05:41:07.238Z,5.62
2023-10-04T05:43:37.786Z,9.63
2023-10-04T05:46:08.619Z,5.37
2023-10-04T05:48:39.432Z,5.03
2023-10-04T05:51:11.534Z,5.47
2023-10-04T05:53:42.264Z,5.37
2023-10-04T05:56:12.821Z,6.00
2023-10-04T05:58:44.374Z,6.33
2023-10-04T06:01:21.038Z,5.70
2023-10-04T06:03:51.714Z,5.90
2023-10-04T06:06:22.240Z,5.17
2023-10-04T06:08:56.661Z,4.95
2023-10-04T06:11:27.371Z,5.47
2023-10-04T06:13:58.571Z,6.25
2023-10-04T06:16:29.560Z,4.72
2023-10-04T06:19:07.652Z,5.67
2023-10-04T06:21:34.560Z,4.67
2023-10-04T06:24:05.703Z,4.78
2023-10-04T06:26:37.097Z,4.75
2023-10-04T06:29:08.288Z,4.92
2023-10-04T06:31:38.905Z,4.72
2023-10-04T06:34:10.124Z,4.75
2023-10-04T06:36:40.691Z,4.80
2023-10-04T06:39:13.911Z,4.78
2023-10-04T06:41:44.886Z,5.10
2023-10-04T06:44:15.405Z,4.70
2023-10-04T06:46:48.769Z,4.65
2023-10-04T06:49:19.555Z,4.55
2023-10-04T06:51:50.452Z,4.62
2023-10-04T06:54:21.094Z,4.90
2023-10-04T06:56:52.877Z,4.62
2023-10-04T06:59:23.536Z,5.12
2023-10-04T07:01:54.131Z,4.95
2023-10-04T07:04:25.180Z,4.35
2023-10-04T07:06:59.011Z,4.35
2023-10-04T07:09:29.806Z,4.92
2023-10-04T07:12:00.514Z,4.20
2023-10-04T07:14:34.349Z,4.72
2023-10-04T07:17:05.291Z,4.55
2023-10-04T07:19:37.530Z,5.33
2023-10-04T07:22:08.619Z,4.17
2023-10-04T07:24:39.334Z,5.03
2023-10-04T07:27:12.606Z,5.03
2023-10-04T07:29:43.134Z,5.42
2023-10-04T07:32:14.525Z,5.90
2023-10-04T07:34:45.277Z,4.97
2023-10-04T07:37:16.509Z,4.33
2023-10-04T07:39:47.016Z,5.00
2023-10-04T07:42:18.748Z,4.33
2023-10-04T07:44:50.276Z,4.67
2023-10-04T07:47:21.085Z,4.80
2023-10-04T07:49:51.839Z,4.75
2023-10-04T07:52:22.435Z,4.65
2023-10-04T07:54:54.613Z,4.70
2023-10-04T07:57:26.037Z,4.85
2023-10-04T07:59:56.692Z,4.97
2023-10-04T08:02:27.286Z,4.22
2023-10-04T08:04:58.120Z,4.72
2023-10-04T08:07:28.688Z,5.42
2023-10-04T08:09:59.696Z,4.10
2023-10-04T08:12:31.340Z,4.17
2023-10-04T08:15:03.783Z,4.65
2023-10-04T08:17:34.606Z,4.83
2023-10-04T08:20:06.128Z,4.03
2023-10-04T08:22:36.696Z,4.37
2023-10-04T08:25:08.211Z,4.60
2023-10-04T08:27:40.448Z,5.28
2023-10-04T08:30:13.551Z,4.33
2023-10-04T08:32:49.188Z,4.80
2023-10-04T08:35:32.790Z,3.55
2023-10-04T08:38:05.564Z,3.80
2023-10-04T08:40:40.351Z,4.45
2023-10-04T08:43:12.519Z,5.17
2023-10-04T08:45:44.358Z,4.15
2023-10-04T08:48:15.805Z,4.35
2023-10-04T08:50:52.094Z,4.12
2023-10-04T08:53:51.353Z,5.22
2023-10-04T08:56:23.192Z,4.35
2023-10-04T08:58:55.411Z,4.08
2023-10-04T09:01:26.754Z,4.20
2023-10-04T09:03:59.339Z,4.35
2023-10-04T09:06:30.825Z,4.37
2023-10-04T09:09:02.037Z,4.42
2023-10-04T09:11:33.608Z,3.80
2023-10-04T09:14:05.531Z,3.98
2023-10-04T09:16:36.573Z,4.00
2023-10-04T09:19:14.225Z,4.85
2023-10-04T09:21:50.996Z,3.70
2023-10-04T09:24:23.565Z,4.12
2023-10-04T09:26:56.145Z,4.60
2023-10-04T09:29:36.472Z,4.20
2023-10-04T09:32:08.575Z,3.70
2023-10-04T09:34:39.079Z,4.05
2023-10-04T09:37:19.721Z,3.98
2023-10-04T09:39:51.197Z,4.42
2023-10-04T09:42:23.631Z,3.85
2023-10-04T09:44:58.560Z,3.70
2023-10-04T09:47:32.065Z,4.78
2023-10-04T09:50:02.812Z,4.10
2023-10-04T09:52:33.502Z,4.65
2023-10-04T09:55:05.791Z,4.20
2023-10-04T09:57:39.258Z,3.83
2023-10-04T10:00:13.948Z,3.37
2023-10-04T10:02:50.809Z,3.58
2023-10-04T10:05:30.268Z,3.72
2023-10-04T10:08:05.678Z,3.80
2023-10-04T10:10:39.874Z,3.47
2023-10-04T10:13:14.517Z,4.35
2023-10-04T10:15:45.574Z,3.42
2023-10-04T10:18:18.581Z,4.00
2023-10-04T10:20:51.327Z,3.87
2023-10-04T10:23:22.316Z,4.22
2023-10-04T10:26:18.960Z,3.52
2023-10-04T10:28:51.961Z,4.08
2023-10-04T10:31:23.365Z,4.45
2023-10-04T10:33:58.667Z,4.37
2023-10-04T10:36:29.469Z,4.42
2023-10-04T10:39:00.847Z,3.80
2023-10-04T10:41:35.845Z,4.20
2023-10-04T10:44:24.972Z,4.50
2023-10-04T10:47:10.585Z,4.03
2023-10-04T10:49:43.966Z,4.00
2023-10-04T10:52:35.397Z,4.35
2023-10-04T10:55:08.562Z,4.22
2023-10-04T10:57:39.441Z,3.80
2023-10-04T11:00:22.240Z,3.50
2023-10-04T11:02:55.549Z,4.47
2023-10-04T11:05:27.613Z,4.30
2023-10-04T11:07:58.881Z,3.92
2023-10-04T11:10:31.097Z,4.22
2023-10-04T11:13:03.587Z,4.58
2023-10-04T11:15:34.311Z,4.45
2023-10-04T11:18:07.473Z,3.60
2023-10-04T11:20:40.151Z,3.77
2023-10-04T11:23:11.939Z,3.92
2023-10-04T11:25:43.780Z,3.83
2023-10-04T11:28:14.545Z,4.30
2023-10-04T11:30:45.262Z,4.22
2023-10-04T11:33:16.544Z,4.25
2023-10-04T11:35:48.570Z,4.00
2023-10-04T11:38:20.628Z,4.17
2023-10-04T11:40:52.539Z,4.03
2023-10-04T11:43:27.968Z,4.95
2023-10-04T11:46:01.850Z,4.42
2023-10-04T11:48:34.478Z,4.78
2023-10-04T11:51:07.973Z,4.12
2023-10-04T11:53:46.809Z,3.65
2023-10-04T11:56:17.452Z,3.90
2023-10-04T11:58:54.532Z,4.10
2023-10-04T12:01:27.908Z,4.30
2023-10-04T12:03:58.453Z,5.10
2023-10-04T12:06:34.554Z,4.15
2023-10-04T12:09:09.316Z,4.33
2023-10-04T12:11:40.910Z,4.35
2023-10-04T12:14:11.490Z,5.30
2023-10-04T12:16:43.629Z,4.92
2023-10-04T12:19:14.547Z,4.60
2023-10-04T12:21:46.057Z,5.00
2023-10-04T12:24:17.797Z,5.17
2023-10-04T12:26:48.285Z,5.37
2023-10-04T12:29:18.886Z,5.47
2023-10-04T12:31:51.021Z,5.97
2023-10-04T12:34:23.229Z,5.78
2023-10-04T12:36:56.132Z,5.53
2023-10-04T12:39:28.065Z,6.05
2023-10-04T12:42:00.267Z,5.22
2023-10-04T12:44:30.724Z,5.15
2023-10-04T12:47:01.372Z,5.80
2023-10-04T12:49:32.004Z,5.47
2023-10-04T12:52:05.077Z,5.97
2023-10-04T12:54:35.779Z,4.65
2023-10-04T12:57:06.380Z,4.65
2023-10-04T12:59:37.087Z,4.90
2023-10-04T13:02:08.057Z,4.33
2023-10-04T13:04:39.809Z,4.55
2023-10-04T13:07:11.241Z,4.60
2023-10-04T13:09:56.114Z,4.53
2023-10-04T13:12:17.192Z,4.75
2023-10-04T13:14:47.753Z,3.92
2023-10-04T13:17:19.758Z,4.95
2023-10-04T13:19:50.435Z,4.60
2023-10-04T13:22:22.619Z,4.72
2023-10-04T13:24:56.448Z,5.35
2023-10-04T13:27:26.345Z,4.45
2023-10-04T13:29:56.883Z,3.85
2023-10-04T13:32:28.956Z,4.87
2023-10-04T13:35:02.333Z,4.58
2023-10-04T13:37:32.930Z,4.00
2023-10-04T13:40:05.926Z,4.22
2023-10-04T13:42:36.998Z,4.42
2023-10-04T13:45:10.174Z,4.60
2023-10-04T13:47:42.730Z,4.22
2023-10-04T13:50:14.512Z,4.67
2023-10-04T13:52:46.863Z,4.45
2023-10-04T13:55:17.554Z,4.20
2023-10-04T13:57:49.292Z,4.05
2023-10-04T14:00:25.985Z,4.40
2023-10-04T14:02:58.981Z,4.12
2023-10-04T14:05:31.633Z,4.30
2023-10-04T14:08:04.924Z,4.50
2023-10-04T14:10:35.465Z,4.35
2023-10-04T14:13:08.300Z,4.30
2023-10-04T14:15:38.972Z,4.47
2023-10-04T14:18:10.909Z,5.45
2023-10-04T14:20:42.797Z,6.33
2023-10-04T14:23:13.426Z,6.87
2023-10-04T14:25:44.046Z,4.95
2023-10-04T14:28:20.341Z,5.12
2023-10-04T14:30:59.051Z,4.85
2023-10-04T14:33:32.886Z,5.35
2023-10-04T14:36:03.419Z,5.17
2023-10-04T14:38:34.537Z,5.00
2023-10-04T14:41:05.859Z,4.67
2023-10-04T14:43:37.239Z,5.05
2023-10-04T14:46:09.581Z,4.80
2023-10-04T14:48:43.676Z,4.83
2023-10-04T14:51:13.912Z,5.53
2023-10-04T14:53:44.600Z,4.60
2023-10-04T14:56:15.199Z,4.87
2023-10-04T14:58:45.761Z,5.45
2023-10-04T15:01:18.532Z,5.22
2023-10-04T15:03:51.046Z,5.35
2023-10-04T15:06:23.794Z,5.45
2023-10-04T15:08:58.447Z,4.75
2023-10-04T15:11:34.460Z,6.75
2023-10-04T15:14:07.074Z,5.80
2023-10-04T15:16:37.920Z,5.20
2023-10-04T15:19:09.093Z,5.03
2023-10-04T15:21:41.844Z,7.12
2023-10-04T15:24:14.290Z,6.53
2023-10-04T15:26:46.774Z,6.15
2023-10-04T15:29:18.136Z,6.40
2023-10-04T15:31:50.685Z,6.10
2023-10-04T15:34:21.324Z,5.33
2023-10-04T15:36:52.117Z,6.42
2023-10-04T15:39:24.209Z,5.75
2023-10-04T15:41:56.747Z,6.55
2023-10-04T15:44:28.106Z,5.58
2023-10-04T15:47:00.326Z,5.75
2023-10-04T15:49:31.002Z,5.90
2023-10-04T15:52:03.086Z,6.45
2023-10-04T15:54:33.769Z,6.25
2023-10-04T15:57:05.090Z,6.00
2023-10-04T15:59:35.827Z,7.20
2023-10-04T16:02:11.974Z,5.87
2023-10-04T16:04:42.695Z,5.70
2023-10-04T16:07:14.475Z,6.25
2023-10-04T16:09:46.616Z,5.87
2023-10-04T16:12:20.317Z,5.55
2023-10-04T16:14:50.915Z,6.30
2023-10-04T16:17:24.573Z,6.65
2023-10-04T16:19:55.914Z,7.40
2023-10-04T16:22:28.427Z,5.90
2023-10-04T16:25:00.385Z,6.72
2023-10-04T16:27:31.775Z,6.08
2023-10-04T16:30:02.693Z,7.85
2023-10-04T16:32:33.991Z,6.40
2023-10-04T16:35:05.866Z,5.78
2023-10-04T16:37:36.584Z,5.78
2023-10-04T16:40:08.513Z,5.50
2023-10-04T16:42:42.221Z,5.65
2023-10-04T16:45:19.628Z,5.62
2023-10-04T16:47:51.090Z,5.72
2023-10-04T16:50:26.468Z,6.20
2023-10-04T16:52:57.198Z,6.40
2023-10-04T16:55:28.902Z,5.50
2023-10-04T16:57:59.675Z,6.60
2023-10-04T17:00:32.444Z,6.62
2023-10-04T17:03:03.604Z,7.30
2023-10-04T17:05:35.573Z,6.90
2023-10-04T17:08:07.639Z,8.50
2023-10-04T17:10:46.822Z,6.33
2023-10-04T17:13:17.680Z,7.03
2023-10-04T17:15:49.005Z,6.90
2023-10-04T17:18:19.883Z,5.95
2023-10-04T17:20:53.070Z,6.45
2023-10-04T17:23:23.659Z,7.35
2023-10-04T17:25:54.629Z,6.92
2023-10-04T17:28:26.389Z,6.53
2023-10-04T17:30:57.752Z,6.58
2023-10-04T17:33:29.991Z,5.95
2023-10-04T17:36:01.026Z,6.17
2023-10-04T17:38:31.977Z,6.55
2023-10-04T17:41:02.922Z,6.37
2023-10-04T17:43:36.651Z,6.72
2023-10-04T17:46:08.586Z,6.72
2023-10-04T17:48:42.305Z,6.65
2023-10-04T17:51:14.560Z,7.03
2023-10-04T17:53:48.119Z,6.62
2023-10-04T17:56:21.707Z,6.30
2023-10-04T17:58:52.764Z,6.75
2023-10-04T18:01:23.622Z,6.60
2023-10-04T18:03:54.534Z,6.12
2023-10-04T18:06:26.786Z,6.30
2023-10-04T18:08:57.381Z,6.85
2023-10-04T18:11:28.702Z,7.60
2023-10-04T18:13:59.615Z,7.15
2023-10-04T18:16:31.860Z,7.22
2023-10-04T18:19:03.486Z,7.35
2023-10-04T18:21:34.352Z,7.03
2023-10-04T18:24:06.811Z,7.05
2023-10-04T18:26:39.639Z,7.40
2023-10-04T18:29:11.924Z,6.97
2023-10-04T18:31:42.851Z,6.83
2023-10-04T18:34:13.802Z,8.00
2023-10-04T18:36:46.153Z,6.87
2023-10-04T18:39:18.918Z,7.17
2023-10-04T18:41:49.644Z,7.00
2023-10-04T18:44:21.894Z,6.00
2023-10-04T18:46:53.763Z,6.50
2023-10-04T18:49:25.372Z,6.75
2023-10-04T18:51:56.711Z,5.92
2023-10-04T18:54:27.427Z,6.17
2023-10-04T18:56:58.115Z,6.47
2023-10-04T18:59:33.004Z,6.60
2023-10-04T19:02:03.823Z,7.08
2023-10-04T19:04:35.202Z,6.85
2023-10-04T19:07:12.308Z,5.90
2023-10-04T19:09:43.546Z,6.97
2023-10-04T19:12:15.147Z,6.42
2023-10-04T19:14:45.742Z,5.60
2023-10-04T19:17:18.011Z,5.87
2023-10-04T19:19:50.306Z,5.72
2023-10-04T19:22:23.160Z,6.00
2023-10-04T19:24:54.715Z,6.37
2023-10-04T19:27:26.634Z,5.67
2023-10-04T19:29:57.504Z,6.12
2023-10-04T19:32:28.470Z,6.22
2023-10-04T19:34:59.046Z,6.35
2023-10-04T19:37:29.982Z,6.17
2023-10-04T19:40:03.213Z,6.72
2023-10-04T19:42:33.434Z,6.22
2023-10-04T19:45:04.670Z,6.65
2023-10-04T19:47:35.734Z,6.00
2023-10-04T19:50:06.957Z,6.00
2023-10-04T19:52:37.684Z,6.35
2023-10-04T19:55:11.457Z,6.87
2023-10-04T19:57:42.745Z,6.03
2023-10-04T20:00:23.922Z,6.55
2023-10-04T20:02:56.869Z,7.50
2023-10-04T20:05:33.984Z,6.47
2023-10-04T20:08:08.917Z,6.53
2023-10-04T20:10:41.786Z,6.95
2023-10-04T20:13:14.081Z,6.85
2023-10-04T20:15:46.466Z,6.45
2023-10-04T20:18:20.080Z,6.85
2023-10-04T20:20:52.181Z,6.33
2023-10-04T20:23:25.269Z,7.75
2023-10-04T20:26:03.220Z,6.35
2023-10-04T20:28:34.585Z,6.80
2023-10-04T20:31:06.045Z,7.00
2023-10-04T20:33:37.333Z,6.62
2023-10-04T20:36:08.444Z,6.78
2023-10-04T20:38:40.806Z,7.67
2023-10-04T20:41:15.292Z,6.33
2023-10-04T20:43:45.804Z,7.10
2023-10-04T20:46:19.261Z,8.10
2023-10-04T20:48:49.924Z,7.15
2023-10-04T20:51:22.551Z,6.47
2023-10-04T20:53:53.329Z,5.87
2023-10-04T20:56:25.790Z,6.33
2023-10-04T20:58:58.083Z,5.70
2023-10-04T21:01:28.812Z,6.17
2023-10-04T21:04:02.717Z,5.75
2023-10-04T21:06:35.094Z,5.60
2023-10-04T21:09:09.432Z,6.08
2023-10-04T21:11:39.930Z,6.20
2023-10-04T21:14:11.213Z,6.05
2023-10-04T21:16:42.444Z,6.03
2023-10-04T21:19:14.880Z,6.30
2023-10-04T21:21:47.465Z,6.25
2023-10-04T21:24:19.436Z,5.25
2023-10-04T21:26:49.999Z,6.50
2023-10-04T21:29:20.603Z,6.05
2023-10-04T21:31:53.098Z,5.25
2023-10-04T21:34:24.761Z,5.85
2023-10-04T21:36:56.038Z,5.92
2023-10-04T21:39:32.524Z,6.00
2023-10-04T21:42:06.513Z,5.72
2023-10-04T21:44:42.290Z,6.20
2023-10-04T21:47:17.440Z,6.22
2023-10-04T21:49:48.441Z,5.72
2023-10-04T21:52:20.746Z,6.37
2023-10-04T21:54:51.754Z,5.70
2023-10-04T21:57:27.915Z,6.45
2023-10-04T22:00:00.600Z,5.55
2023-10-04T22:02:33.345Z,7.85
2023-10-04T22:05:05.629Z,6.33
2023-10-04T22:07:38.612Z,5.65
2023-10-04T22:10:11.871Z,5.90
2023-10-04T22:12:43.230Z,6.30
2023-10-04T22:15:14.680Z,5.67
2023-10-04T22:17:47.266Z,5.72
2023-10-04T22:20:18.339Z,5.50
2023-10-04T22:22:49.665Z,6.08
2023-10-04T22:25:22.563Z,5.70
2023-10-04T22:27:55.547Z,5.70
2023-10-04T22:30:27.881Z,6.05
2023-10-04T22:32:58.605Z,5.62
2023-10-04T22:35:33.792Z,5.58
2023-10-04T22:38:05.575Z,5.62
2023-10-04T22:40:36.149Z,5.40
2023-10-04T22:43:11.635Z,5.45
2023-10-04T22:45:42.507Z,5.97
2023-10-04T22:48:13.730Z,6.92
2023-10-04T22:50:44.538Z,6.62
2023-10-04T22:53:15.309Z,5.78
2023-10-04T22:55:46.393Z,5.80
2023-10-04T22:58:18.762Z,6.08
2023-10-04T23:00:49.864Z,6.75
2023-10-04T23:03:24.464Z,6.97
2023-10-04T23:05:54.537Z,6.33
2023-10-04T23:08:26.053Z,6.97
2023-10-04T23:10:56.913Z,6.30
2023-10-04T23:13:27.683Z,7.33
2023-10-04T23:16:00.487Z,6.28
2023-10-04T23:18:32.958Z,6.25
2023-10-04T23:21:12.579Z,7.85
2023-10-04T23:23:44.867Z,6.53
2023-10-04T23:26:17.272Z,6.40
2023-10-04T23:28:48.367Z,6.17
2023-10-04T23:31:21.387Z,6.53
2023-10-04T23:33:54.022Z,6.03
2023-10-04T23:36:27.699Z,6.37
2023-10-04T23:39:00.030Z,6.87
2023-10-04T23:41:37.612Z,6.75
2023-10-04T23:44:10.473Z,6.90
2023-10-04T23:46:41.602Z,6.45
2023-10-04T23:49:14.123Z,7.67
2023-10-04T23:51:45.004Z,6.65
2023-10-04T23:54:25.421Z,6.28
2023-10-04T23:56:57.600Z,5.60
2023-10-04T23:59:28.936Z,6.72
